sensor_id;sensor_type;location;lat;lon;timestamp;temperature;humidity
82231;DHT22;71832;45.138;9.816;2024-01-15T00:01:23;1.50;99.90
82231;DHT22;71832;45.138;9.816;2024-01-15T00:03:52;1.50;99.90
82231;DHT22;71832;45.138;9.816;2024-01-15T00:06:20;1.40;99.90
82231;DHT22;71832;45.138;9.816;2024-01-15T00:08:49;1.40;99.90
82231;DHT22;71832;45.138;9.816;2024-01-15T00:11:17;1.50;99.90
82231;DHT22;71832;45.138;9.816;2024-01-15T00:13:46;1.40;99.90
82231;DHT22;71832;45.138;9.816;2024-01-15T00:16:14;1.40;99.90
82231;DHT22;71832;45.138;9.816;2024-01-15T00:18:43;1.40;99.90
82231;DHT22;71832;45.138;9.816;2024-01-15T00:21:12;1.40;99.90
82231;DHT22;71832;45.138;9.816;2024-01-15T00:23:43;1.40;99.90
82231;DHT22;71832;45.138;9.816;2024-01-15T00:26:12;1.40;99.90
82231;DHT22;71832;45.138;9.816;2024-01-15T00:28:41;1.50;99.90
82231;DHT22;71832;45.138;9.816;2024-01-15T00:31:09;1.50;99.90
82231;DHT22;71832;45.138;9.816;2024-01-15T00:33:38;1.50;99.90
82231;DHT22;71832;45.138;9.816;2024-01-15T00:36:07;1.50;99.90
82231;DHT22;71832;45.138;9.816;2024-01-15T00:38:36;1.50;99.90
82231;DHT22;71832;45.138;9.816;2024-01-15T00:41:05;1.50;99.90
82231;DHT22;71832;45.138;9.816;2024-01-15T00:43:33;1.50;99.90
82231;DHT22;71832;45.138;9.816;2024-01-15T00:46:04;1.50;99.90
82231;DHT22;71832;45.138;9.816;2024-01-15T00:48:33;1.50;99.90
82231;DHT22;71832;45.138;9.816;2024-01-15T00:51:02;1.50;99.90
82231;DHT22;71832;45.138;9.816;2024-01-15T00:53:31;1.50;99.90
82231;DHT22;71832;45.138;9.816;2024-01-15T00:55:59;1.50;99.90
82231;DHT22;71832;45.138;9.816;2024-01-15T00:58:28;1.50;99.90
82231;DHT22;71832;45.138;9.816;2024-01-15T01:00:57;1.50;99.90
82231;DHT22;71832;45.138;9.816;2024-01-15T01:03:25;1.50;99.90
82231;DHT22;71832;45.138;9.816;2024-01-15T01:05:54;1.50;99.90
82231;DHT22;71832;45.138;9.816;2024-01-15T01:08:23;1.50;99.90
82231;DHT22;71832;45.138;9.816;2024-01-15T01:10:52;1.50;99.90
82231;DHT22;71832;45.138;9.816;2024-01-15T01:13:20;1.50;99.90
82231;DHT22;71832;45.138;9.816;2024-01-15T01:15:49;1.50;99.90
82231;DHT22;71832;45.138;9.816;2024-01-15T01:18:18;1.40;99.90
82231;DHT22;71832;45.138;9.816;2024-01-15T01:20:47;1.50;99.90
82231;DHT22;71832;45.138;9.816;2024-01-15T01:23:15;1.50;99.90
82231;DHT22;71832;45.138;9.816;2024-01-15T01:25:44;1.50;99.90
82231;DHT22;71832;45.138;9.816;2024-01-15T01:28:13;1.50;99.90
82231;DHT22;71832;45.138;9.816;2024-01-15T01:30:41;1.50;99.90
82231;DHT22;71832;45.138;9.816;2024-01-15T01:33:10;1.50;99.90
82231;DHT22;71832;45.138;9.816;2024-01-15T01:35:39;1.50;99.90
82231;DHT22;71832;45.138;9.816;2024-01-15T01:38:08;1.50;99.90
82231;DHT22;71832;45.138;9.816;2024-01-15T01:40:36;1.60;99.90
82231;DHT22;71832;45.138;9.816;2024-01-15T01:43:06;1.60;99.90
82231;DHT22;71832;45.138;9.816;2024-01-15T01:45:37;1.60;99.90
82231;DHT22;71832;45.138;9.816;2024-01-15T01:48:06;1.60;99.90
82231;DHT22;71832;45.138;9.816;2024-01-15T01:50:35;1.60;99.90
82231;DHT22;71832;45.138;9.816;2024-01-15T01:53:03;1.50;99.90
82231;DHT22;71832;45.138;9.816;2024-01-15T01:55:31;1.50;99.90
82231;DHT22;71832;45.138;9.816;2024-01-15T01:58:00;1.50;99.90
82231;DHT22;71832;45.138;9.816;2024-01-15T02:00:29;1.50;99.90
82231;DHT22;71832;45.138;9.816;2024-01-15T02:02:57;1.50;99.90
82231;DHT22;71832;45.138;9.816;2024-01-15T02:05:25;1.50;99.90
82231;DHT22;71832;45.138;9.816;2024-01-15T02:07:54;1.50;99.90
82231;DHT22;71832;45.138;9.816;2024-01-15T02:10:22;1.50;99.90
82231;DHT22;71832;45.138;9.816;2024-01-15T02:12:49;1.50;99.90
82231;DHT22;71832;45.138;9.816;2024-01-15T02:15:17;1.50;99.90
82231;DHT22;71832;45.138;9.816;2024-01-15T02:18:04;1.50;99.90
82231;DHT22;71832;45.138;9.816;2024-01-15T02:20:34;1.50;99.90
82231;DHT22;71832;45.138;9.816;2024-01-15T02:23:17;1.60;99.90
82231;DHT22;71832;45.138;9.816;2024-01-15T02:25:46;1.60;99.90
82231;DHT22;71832;45.138;9.816;2024-01-15T02:28:16;1.60;99.90
82231;DHT22;71832;45.138;9.816;2024-01-15T02:30:44;1.60;99.90
82231;DHT22;71832;45.138;9.816;2024-01-15T02:33:13;1.70;99.90
82231;DHT22;71832;45.138;9.816;2024-01-15T02:35:41;1.70;99.90
82231;DHT22;71832;45.138;9.816;2024-01-15T02:38:10;1.70;99.90
82231;DHT22;71832;45.138;9.816;2024-01-15T02:40:39;1.70;99.90
82231;DHT22;71832;45.138;9.816;2024-01-15T02:43:08;1.70;99.90
82231;DHT22;71832;45.138;9.816;2024-01-15T02:45:36;1.60;99.90
82231;DHT22;71832;45.138;9.816;2024-01-15T02:48:05;1.60;99.90
82231;DHT22;71832;45.138;9.816;2024-01-15T02:50:33;1.50;99.90
82231;DHT22;71832;45.138;9.816;2024-01-15T02:53:02;1.50;99.90
82231;DHT22;71832;45.138;9.816;2024-01-15T02:55:31;1.60;99.90
82231;DHT22;71832;45.138;9.816;2024-01-15T02:58:00;1.50;99.90
82231;DHT22;71832;45.138;9.816;2024-01-15T03:00:29;1.50;99.90
82231;DHT22;71832;45.138;9.816;2024-01-15T03:02:57;1.50;99.90
82231;DHT22;71832;45.138;9.816;2024-01-15T03:05:26;1.50;99.90
82231;DHT22;71832;45.138;9.816;2024-01-15T03:07:54;1.50;99.90
82231;DHT22;71832;45.138;9.816;2024-01-15T03:10:21;1.60;99.90
82231;DHT22;71832;45.138;9.816;2024-01-15T03:12:50;1.60;99.90
82231;DHT22;71832;45.138;9.816;2024-01-15T03:15:18;1.60;99.90
82231;DHT22;71832;45.138;9.816;2024-01-15T03:17:47;1.70;99.90
82231;DHT22;71832;45.138;9.816;2024-01-15T03:20:16;1.60;99.90
82231;DHT22;71832;45.138;9.816;2024-01-15T03:22:45;1.60;99.90
82231;DHT22;71832;45.138;9.816;2024-01-15T03:25:14;1.70;99.90
82231;DHT22;71832;45.138;9.816;2024-01-15T03:27:42;1.70;99.90
82231;DHT22;71832;45.138;9.816;2024-01-15T03:30:11;1.60;99.90
82231;DHT22;71832;45.138;9.816;2024-01-15T03:32:40;1.60;99.90
82231;DHT22;71832;45.138;9.816;2024-01-15T03:35:09;1.60;99.90
82231;DHT22;71832;45.138;9.816;2024-01-15T03:37:37;1.70;99.90
82231;DHT22;71832;45.138;9.816;2024-01-15T03:40:06;1.60;99.90
82231;DHT22;71832;45.138;9.816;2024-01-15T03:42:35;1.60;99.90
82231;DHT22;71832;45.138;9.816;2024-01-15T03:45:04;1.70;99.90
82231;DHT22;71832;45.138;9.816;2024-01-15T03:47:33;1.70;99.90
82231;DHT22;71832;45.138;9.816;2024-01-15T03:50:02;1.70;99.90
82231;DHT22;71832;45.138;9.816;2024-01-15T03:52:30;1.70;99.90
82231;DHT22;71832;45.138;9.816;2024-01-15T03:54:59;1.70;99.90
82231;DHT22;71832;45.138;9.816;2024-01-15T03:57:28;1.80;99.90
82231;DHT22;71832;45.138;9.816;2024-01-15T03:59:57;1.70;99.90
82231;DHT22;71832;45.138;9.816;2024-01-15T04:02:25;1.70;99.90
82231;DHT22;71832;45.138;9.816;2024-01-15T04:04:54;1.80;99.90
82231;DHT22;71832;45.138;9.816;2024-01-15T04:07:23;1.80;99.90
82231;DHT22;71832;45.138;9.816;2024-01-15T04:09:51;1.80;99.90
82231;DHT22;71832;45.138;9.816;2024-01-15T04:12:19;1.80;99.90
82231;DHT22;71832;45.138;9.816;2024-01-15T04:14:48;1.80;99.90
82231;DHT22;71832;45.138;9.816;2024-01-15T04:17:17;1.80;99.90
82231;DHT22;71832;45.138;9.816;2024-01-15T04:19:45;1.80;99.90
82231;DHT22;71832;45.138;9.816;2024-01-15T04:22:15;1.80;99.90
82231;DHT22;71832;45.138;9.816;2024-01-15T04:24:44;1.70;99.90
82231;DHT22;71832;45.138;9.816;2024-01-15T04:27:13;1.70;99.90
82231;DHT22;71832;45.138;9.816;2024-01-15T04:29:41;1.70;99.90
82231;DHT22;71832;45.138;9.816;2024-01-15T04:32:11;1.70;99.90
82231;DHT22;71832;45.138;9.816;2024-01-15T04:34:40;1.70;99.90
82231;DHT22;71832;45.138;9.816;2024-01-15T04:37:09;1.70;99.90
82231;DHT22;71832;45.138;9.816;2024-01-15T04:39:38;1.70;99.90
82231;DHT22;71832;45.138;9.816;2024-01-15T04:42:06;1.70;99.90
82231;DHT22;71832;45.138;9.816;2024-01-15T04:44:35;1.70;99.90
82231;DHT22;71832;45.138;9.816;2024-01-15T04:47:04;1.60;99.90
82231;DHT22;71832;45.138;9.816;2024-01-15T04:49:33;1.70;99.90
82231;DHT22;71832;45.138;9.816;2024-01-15T04:52:01;1.70;99.90
82231;DHT22;71832;45.138;9.816;2024-01-15T04:54:30;1.70;99.90
82231;DHT22;71832;45.138;9.816;2024-01-15T04:56:59;1.70;99.90
82231;DHT22;71832;45.138;9.816;2024-01-15T04:59:28;1.70;99.90
82231;DHT22;71832;45.138;9.816;2024-01-15T05:01:56;1.70;99.90
82231;DHT22;71832;45.138;9.816;2024-01-15T05:04:24;1.60;99.90
82231;DHT22;71832;45.138;9.816;2024-01-15T05:06:51;1.60;99.90
82231;DHT22;71832;45.138;9.816;2024-01-15T05:09:19;1.60;99.90
82231;DHT22;71832;45.138;9.816;2024-01-15T05:11:46;1.60;99.90
82231;DHT22;71832;45.138;9.816;2024-01-15T05:14:13;1.60;99.90
82231;DHT22;71832;45.138;9.816;2024-01-15T05:16:47;1.70;99.90
82231;DHT22;71832;45.138;9.816;2024-01-15T05:19:18;1.70;99.90
82231;DHT22;71832;45.138;9.816;2024-01-15T05:21:45;1.80;99.90
82231;DHT22;71832;45.138;9.816;2024-01-15T05:24:12;1.80;99.90
82231;DHT22;71832;45.138;9.816;2024-01-15T05:26:40;1.80;99.90
82231;DHT22;71832;45.138;9.816;2024-01-15T05:29:09;1.80;99.90
82231;DHT22;71832;45.138;9.816;2024-01-15T05:31:37;1.80;99.90
82231;DHT22;71832;45.138;9.816;2024-01-15T05:34:06;1.80;99.90
82231;DHT22;71832;45.138;9.816;2024-01-15T05:36:34;1.90;99.90
82231;DHT22;71832;45.138;9.816;2024-01-15T05:39:03;1.90;99.90
82231;DHT22;71832;45.138;9.816;2024-01-15T05:41:31;1.90;99.90
82231;DHT22;71832;45.138;9.816;2024-01-15T05:44:00;1.90;99.90
82231;DHT22;71832;45.138;9.816;2024-01-15T05:46:29;1.90;99.90
82231;DHT22;71832;45.138;9.816;2024-01-15T05:48:57;1.90;99.90
82231;DHT22;71832;45.138;9.816;2024-01-15T05:51:26;1.90;99.90
82231;DHT22;71832;45.138;9.816;2024-01-15T05:53:55;1.90;99.90
82231;DHT22;71832;45.138;9.816;2024-01-15T05:56:23;1.90;99.90
82231;DHT22;71832;45.138;9.816;2024-01-15T05:58:52;1.90;99.90
82231;DHT22;71832;45.138;9.816;2024-01-15T06:01:21;1.90;99.90
82231;DHT22;71832;45.138;9.816;2024-01-15T06:03:50;1.90;99.90
82231;DHT22;71832;45.138;9.816;2024-01-15T06:06:18;1.90;99.90
82231;DHT22;71832;45.138;9.816;2024-01-15T06:08:46;1.90;99.90
82231;DHT22;71832;45.138;9.816;2024-01-15T06:11:14;1.90;99.90
82231;DHT22;71832;45.138;9.816;2024-01-15T06:13:42;1.80;99.90
82231;DHT22;71832;45.138;9.816;2024-01-15T06:16:15;1.80;99.90
82231;DHT22;71832;45.138;9.816;2024-01-15T06:18:46;1.80;99.90
82231;DHT22;71832;45.138;9.816;2024-01-15T06:21:15;1.80;99.90
82231;DHT22;71832;45.138;9.816;2024-01-15T06:23:44;1.70;99.90
82231;DHT22;71832;45.138;9.816;2024-01-15T06:26:13;1.70;99.90
82231;DHT22;71832;45.138;9.816;2024-01-15T06:28:42;1.60;99.90
82231;DHT22;71832;45.138;9.816;2024-01-15T06:31:10;1.50;99.90
82231;DHT22;71832;45.138;9.816;2024-01-15T06:33:38;1.50;99.90
82231;DHT22;71832;45.138;9.816;2024-01-15T06:36:07;1.60;99.90
82231;DHT22;71832;45.138;9.816;2024-01-15T06:38:36;1.70;99.90
82231;DHT22;71832;45.138;9.816;2024-01-15T06:41:04;1.70;99.90
82231;DHT22;71832;45.138;9.816;2024-01-15T06:43:33;1.80;99.90
82231;DHT22;71832;45.138;9.816;2024-01-15T06:46:02;1.80;99.90
82231;DHT22;71832;45.138;9.816;2024-01-15T06:48:31;1.90;99.90
82231;DHT22;71832;45.138;9.816;2024-01-15T06:50:59;1.90;99.90
82231;DHT22;71832;45.138;9.816;2024-01-15T06:53:27;1.80;99.90
82231;DHT22;71832;45.138;9.816;2024-01-15T06:55:55;1.80;99.90
82231;DHT22;71832;45.138;9.816;2024-01-15T06:58:22;1.90;99.90
82231;DHT22;71832;45.138;9.816;2024-01-15T07:00:50;1.90;99.90
82231;DHT22;71832;45.138;9.816;2024-01-15T07:03:21;1.90;99.90
82231;DHT22;71832;45.138;9.816;2024-01-15T07:05:49;2.00;99.90
82231;DHT22;71832;45.138;9.816;2024-01-15T07:08:17;2.00;99.90
82231;DHT22;71832;45.138;9.816;2024-01-15T07:10:44;2.00;99.90
82231;DHT22;71832;45.138;9.816;2024-01-15T07:13:12;2.00;99.90
82231;DHT22;71832;45.138;9.816;2024-01-15T07:15:40;2.00;99.90
82231;DHT22;71832;45.138;9.816;2024-01-15T07:18:07;2.00;99.90
82231;DHT22;71832;45.138;9.816;2024-01-15T07:20:34;2.00;99.90
82231;DHT22;71832;45.138;9.816;2024-01-15T07:23:02;2.00;99.90
82231;DHT22;71832;45.138;9.816;2024-01-15T07:25:31;2.00;99.90
82231;DHT22;71832;45.138;9.816;2024-01-15T07:28:00;2.10;99.90
82231;DHT22;71832;45.138;9.816;2024-01-15T07:30:28;2.00;99.90
82231;DHT22;71832;45.138;9.816;2024-01-15T07:32:56;2.10;99.90
82231;DHT22;71832;45.138;9.816;2024-01-15T07:35:25;2.10;99.90
82231;DHT22;71832;45.138;9.816;2024-01-15T07:37:54;2.00;99.90
82231;DHT22;71832;45.138;9.816;2024-01-15T07:40:22;2.00;99.90
82231;DHT22;71832;45.138;9.816;2024-01-15T07:42:51;2.00;99.90
82231;DHT22;71832;45.138;9.816;2024-01-15T07:45:19;2.00;99.90
82231;DHT22;71832;45.138;9.816;2024-01-15T07:47:46;2.10;99.90
82231;DHT22;71832;45.138;9.816;2024-01-15T07:50:14;2.10;99.90
82231;DHT22;71832;45.138;9.816;2024-01-15T07:52:43;2.20;99.90
82231;DHT22;71832;45.138;9.816;2024-01-15T07:55:11;2.20;99.90
82231;DHT22;71832;45.138;9.816;2024-01-15T07:57:40;2.20;99.90
82231;DHT22;71832;45.138;9.816;2024-01-15T08:00:07;2.30;99.90
82231;DHT22;71832;45.138;9.816;2024-01-15T08:02:36;2.30;99.90
82231;DHT22;71832;45.138;9.816;2024-01-15T08:05:05;2.40;99.90
82231;DHT22;71832;45.138;9.816;2024-01-15T08:07:33;2.40;99.90
82231;DHT22;71832;45.138;9.816;2024-01-15T08:10:01;2.40;99.90
82231;DHT22;71832;45.138;9.816;2024-01-15T08:12:30;2.50;99.90
82231;DHT22;71832;45.138;9.816;2024-01-15T08:14:59;2.50;99.90
82231;DHT22;71832;45.138;9.816;2024-01-15T08:17:26;2.50;99.90
82231;DHT22;71832;45.138;9.816;2024-01-15T08:19:55;2.50;99.90
82231;DHT22;71832;45.138;9.816;2024-01-15T08:22:24;2.50;99.90
82231;DHT22;71832;45.138;9.816;2024-01-15T08:24:53;2.50;99.90
82231;DHT22;71832;45.138;9.816;2024-01-15T08:45:22;2.80;99.90
82231;DHT22;71832;45.138;9.816;2024-01-15T08:50:54;2.80;99.90
82231;DHT22;71832;45.138;9.816;2024-01-15T08:53:24;2.90;99.90
82231;DHT22;71832;45.138;9.816;2024-01-15T08:58:56;2.90;99.90
82231;DHT22;71832;45.138;9.816;2024-01-15T09:02:11;2.90;99.90
82231;DHT22;71832;45.138;9.816;2024-01-15T09:04:47;2.90;99.90
82231;DHT22;71832;45.138;9.816;2024-01-15T09:10:32;2.90;99.90
82231;DHT22;71832;45.138;9.816;2024-01-15T09:13:21;2.90;99.90
82231;DHT22;71832;45.138;9.816;2024-01-15T09:16:04;2.90;99.90
82231;DHT22;71832;45.138;9.816;2024-01-15T09:18:35;3.00;99.90
82231;DHT22;71832;45.138;9.816;2024-01-15T09:21:32;3.00;99.90
82231;DHT22;71832;45.138;9.816;2024-01-15T09:24:27;3.00;99.90
82231;DHT22;71832;45.138;9.816;2024-01-15T09:26:54;3.00;99.90
82231;DHT22;71832;45.138;9.816;2024-01-15T09:29:22;2.90;99.90
82231;DHT22;71832;45.138;9.816;2024-01-15T09:31:50;3.00;99.90
82231;DHT22;71832;45.138;9.816;2024-01-15T09:38:27;3.00;99.90
82231;DHT22;71832;45.138;9.816;2024-01-15T09:40:46;3.00;99.90
82231;DHT22;71832;45.138;9.816;2024-01-15T09:43:15;3.10;99.90
82231;DHT22;71832;45.138;9.816;2024-01-15T09:45:43;3.10;99.90
82231;DHT22;71832;45.138;9.816;2024-01-15T09:48:11;3.10;99.90
82231;DHT22;71832;45.138;9.816;2024-01-15T09:50:39;3.10;99.90
82231;DHT22;71832;45.138;9.816;2024-01-15T09:53:07;3.10;99.90
82231;DHT22;71832;45.138;9.816;2024-01-15T09:55:37;3.00;99.90
82231;DHT22;71832;45.138;9.816;2024-01-15T09:58:05;3.10;99.90
82231;DHT22;71832;45.138;9.816;2024-01-15T10:00:34;3.10;99.90
82231;DHT22;71832;45.138;9.816;2024-01-15T10:03:05;3.10;99.90
82231;DHT22;71832;45.138;9.816;2024-01-15T10:05:35;3.20;99.90
82231;DHT22;71832;45.138;9.816;2024-01-15T10:08:19;3.20;99.90
82231;DHT22;71832;45.138;9.816;2024-01-15T10:10:57;3.20;99.90
82231;DHT22;71832;45.138;9.816;2024-01-15T10:13:25;3.30;99.90
82231;DHT22;71832;45.138;9.816;2024-01-15T10:18:38;3.30;99.90
82231;DHT22;71832;45.138;9.816;2024-01-15T10:21:25;3.30;99.90
82231;DHT22;71832;45.138;9.816;2024-01-15T10:24:25;3.30;99.90
82231;DHT22;71832;45.138;9.816;2024-01-15T10:27:09;3.40;99.90
82231;DHT22;71832;45.138;9.816;2024-01-15T10:29:47;3.50;99.90
82231;DHT22;71832;45.138;9.816;2024-01-15T10:35:48;3.60;99.90
82231;DHT22;71832;45.138;9.816;2024-01-15T10:38:16;3.70;99.90
82231;DHT22;71832;45.138;9.816;2024-01-15T10:40:45;3.70;99.90
82231;DHT22;71832;45.138;9.816;2024-01-15T10:43:14;3.80;99.90
82231;DHT22;71832;45.138;9.816;2024-01-15T10:45:44;3.90;99.90
82231;DHT22;71832;45.138;9.816;2024-01-15T10:48:13;3.90;99.90
82231;DHT22;71832;45.138;9.816;2024-01-15T10:50:42;3.90;99.90
82231;DHT22;71832;45.138;9.816;2024-01-15T10:53:13;4.00;99.90
82231;DHT22;71832;45.138;9.816;2024-01-15T10:55:42;4.00;99.90
82231;DHT22;71832;45.138;9.816;2024-01-15T10:58:11;4.00;99.90
82231;DHT22;71832;45.138;9.816;2024-01-15T11:00:40;4.00;99.90
82231;DHT22;71832;45.138;9.816;2024-01-15T11:03:10;4.10;99.90
82231;DHT22;71832;45.138;9.816;2024-01-15T11:05:44;4.10;99.90
82231;DHT22;71832;45.138;9.816;2024-01-15T11:08:12;4.10;99.90
82231;DHT22;71832;45.138;9.816;2024-01-15T11:10:47;4.20;99.90
82231;DHT22;71832;45.138;9.816;2024-01-15T11:16:09;4.30;99.90
82231;DHT22;71832;45.138;9.816;2024-01-15T11:18:40;4.40;99.90
82231;DHT22;71832;45.138;9.816;2024-01-15T11:21:19;4.50;99.90
82231;DHT22;71832;45.138;9.816;2024-01-15T11:23:53;4.50;99.90
82231;DHT22;71832;45.138;9.816;2024-01-15T11:26:44;4.60;99.90
82231;DHT22;71832;45.138;9.816;2024-01-15T11:29:33;4.70;99.80
82231;DHT22;71832;45.138;9.816;2024-01-15T11:32:04;4.80;99.90
82231;DHT22;71832;45.138;9.816;2024-01-15T11:35:01;4.90;99.80
82231;DHT22;71832;45.138;9.816;2024-01-15T11:40:21;5.00;97.50
82231;DHT22;71832;45.138;9.816;2024-01-15T11:42:50;5.00;97.00
82231;DHT22;71832;45.138;9.816;2024-01-15T11:45:20;5.00;97.00
82231;DHT22;71832;45.138;9.816;2024-01-15T11:50:22;5.10;96.40
82231;DHT22;71832;45.138;9.816;2024-01-15T11:53:03;5.20;96.20
82231;DHT22;71832;45.138;9.816;2024-01-15T11:55:41;5.30;95.40
82231;DHT22;71832;45.138;9.816;2024-01-15T11:58:12;5.50;94.50
82231;DHT22;71832;45.138;9.816;2024-01-15T12:00:46;5.50;94.70
82231;DHT22;71832;45.138;9.816;2024-01-15T12:03:15;5.60;94.60
82231;DHT22;71832;45.138;9.816;2024-01-15T12:05:43;5.80;94.00
82231;DHT22;71832;45.138;9.816;2024-01-15T12:08:10;5.80;93.90
82231;DHT22;71832;45.138;9.816;2024-01-15T12:10:40;5.90;92.70
82231;DHT22;71832;45.138;9.816;2024-01-15T12:13:17;6.00;92.20
82231;DHT22;71832;45.138;9.816;2024-01-15T12:15:46;6.10;91.90
82231;DHT22;71832;45.138;9.816;2024-01-15T12:18:16;6.20;90.90
82231;DHT22;71832;45.138;9.816;2024-01-15T12:20:45;6.20;90.90
82231;DHT22;71832;45.138;9.816;2024-01-15T12:23:13;6.30;90.50
82231;DHT22;71832;45.138;9.816;2024-01-15T12:25:44;6.30;90.10
82231;DHT22;71832;45.138;9.816;2024-01-15T12:28:34;6.30;89.10
82231;DHT22;71832;45.138;9.816;2024-01-15T12:31:06;6.30;89.60
82231;DHT22;71832;45.138;9.816;2024-01-15T12:33:34;6.30;89.60
82231;DHT22;71832;45.138;9.816;2024-01-15T12:36:03;6.30;89.60
82231;DHT22;71832;45.138;9.816;2024-01-15T12:38:34;6.30;89.80
82231;DHT22;71832;45.138;9.816;2024-01-15T12:41:05;6.40;90.00
82231;DHT22;71832;45.138;9.816;2024-01-15T12:43:33;6.40;89.50
82231;DHT22;71832;45.138;9.816;2024-01-15T12:46:01;6.30;88.70
82231;DHT22;71832;45.138;9.816;2024-01-15T12:48:29;6.30;89.10
82231;DHT22;71832;45.138;9.816;2024-01-15T12:50:58;6.30;89.20
82231;DHT22;71832;45.138;9.816;2024-01-15T12:53:26;6.30;89.60
82231;DHT22;71832;45.138;9.816;2024-01-15T12:55:55;6.30;90.00
82231;DHT22;71832;45.138;9.816;2024-01-15T12:58:24;6.30;90.30
82231;DHT22;71832;45.138;9.816;2024-01-15T13:00:52;6.30;91.80
82231;DHT22;71832;45.138;9.816;2024-01-15T13:03:23;6.30;91.20
82231;DHT22;71832;45.138;9.816;2024-01-15T13:05:50;6.30;90.10
82231;DHT22;71832;45.138;9.816;2024-01-15T13:08:19;6.30;90.00
82231;DHT22;71832;45.138;9.816;2024-01-15T13:10:50;6.20;90.40
82231;DHT22;71832;45.138;9.816;2024-01-15T13:13:23;6.20;91.80
82231;DHT22;71832;45.138;9.816;2024-01-15T13:15:51;6.30;91.70
82231;DHT22;71832;45.138;9.816;2024-01-15T13:18:19;6.30;91.50
82231;DHT22;71832;45.138;9.816;2024-01-15T13:20:46;6.30;90.90
82231;DHT22;71832;45.138;9.816;2024-01-15T13:23:14;6.30;89.70
82231;DHT22;71832;45.138;9.816;2024-01-15T13:25:43;6.30;89.20
82231;DHT22;71832;45.138;9.816;2024-01-15T13:28:11;6.30;87.70
82231;DHT22;71832;45.138;9.816;2024-01-15T13:30:40;6.30;88.40
82231;DHT22;71832;45.138;9.816;2024-01-15T13:33:09;6.40;88.50
82231;DHT22;71832;45.138;9.816;2024-01-15T13:35:38;6.40;88.90
82231;DHT22;71832;45.138;9.816;2024-01-15T13:38:06;6.40;88.60
82231;DHT22;71832;45.138;9.816;2024-01-15T13:40:36;6.40;88.20
82231;DHT22;71832;45.138;9.816;2024-01-15T13:43:05;6.40;88.00
82231;DHT22;71832;45.138;9.816;2024-01-15T13:45:35;6.40;87.50
82231;DHT22;71832;45.138;9.816;2024-01-15T13:48:04;6.40;88.10
82231;DHT22;71832;45.138;9.816;2024-01-15T13:50:32;6.50;87.60
82231;DHT22;71832;45.138;9.816;2024-01-15T13:53:00;6.50;87.50
82231;DHT22;71832;45.138;9.816;2024-01-15T13:55:29;6.50;88.70
82231;DHT22;71832;45.138;9.816;2024-01-15T13:57:58;6.40;87.40
82231;DHT22;71832;45.138;9.816;2024-01-15T14:00:27;6.40;86.80
82231;DHT22;71832;45.138;9.816;2024-01-15T14:02:55;6.40;86.80
82231;DHT22;71832;45.138;9.816;2024-01-15T14:05:25;6.40;86.90
82231;DHT22;71832;45.138;9.816;2024-01-15T14:07:53;6.40;86.90
82231;DHT22;71832;45.138;9.816;2024-01-15T14:10:22;6.50;87.10
82231;DHT22;71832;45.138;9.816;2024-01-15T14:12:50;6.50;86.90
82231;DHT22;71832;45.138;9.816;2024-01-15T14:15:18;6.50;88.30
82231;DHT22;71832;45.138;9.816;2024-01-15T14:17:48;6.50;89.60
82231;DHT22;71832;45.138;9.816;2024-01-15T14:20:17;6.50;89.60
82231;DHT22;71832;45.138;9.816;2024-01-15T14:22:46;6.50;88.80
82231;DHT22;71832;45.138;9.816;2024-01-15T14:25:14;6.50;88.50
82231;DHT22;71832;45.138;9.816;2024-01-15T14:27:43;6.60;87.60
82231;DHT22;71832;45.138;9.816;2024-01-15T14:30:11;6.60;87.30
82231;DHT22;71832;45.138;9.816;2024-01-15T14:32:40;6.60;88.70
82231;DHT22;71832;45.138;9.816;2024-01-15T14:35:08;6.60;88.10
82231;DHT22;71832;45.138;9.816;2024-01-15T14:37:38;6.60;88.00
82231;DHT22;71832;45.138;9.816;2024-01-15T14:40:07;6.60;87.20
82231;DHT22;71832;45.138;9.816;2024-01-15T14:42:35;6.50;86.50
82231;DHT22;71832;45.138;9.816;2024-01-15T14:45:05;6.50;86.80
82231;DHT22;71832;45.138;9.816;2024-01-15T14:47:39;6.50;86.80
82231;DHT22;71832;45.138;9.816;2024-01-15T14:50:08;6.60;86.50
82231;DHT22;71832;45.138;9.816;2024-01-15T14:52:38;6.50;86.20
82231;DHT22;71832;45.138;9.816;2024-01-15T14:55:09;6.50;86.30
82231;DHT22;71832;45.138;9.816;2024-01-15T14:57:38;6.50;85.90
82231;DHT22;71832;45.138;9.816;2024-01-15T15:00:07;6.50;86.00
82231;DHT22;71832;45.138;9.816;2024-01-15T15:02:36;6.50;86.10
82231;DHT22;71832;45.138;9.816;2024-01-15T15:05:05;6.40;86.10
82231;DHT22;71832;45.138;9.816;2024-01-15T15:07:34;6.40;86.40
82231;DHT22;71832;45.138;9.816;2024-01-15T15:10:04;6.40;86.60
82231;DHT22;71832;45.138;9.816;2024-01-15T15:12:33;6.40;87.60
82231;DHT22;71832;45.138;9.816;2024-01-15T15:15:01;6.30;88.40
82231;DHT22;71832;45.138;9.816;2024-01-15T15:17:28;6.30;88.90
82231;DHT22;71832;45.138;9.816;2024-01-15T15:19:57;6.30;89.10
82231;DHT22;71832;45.138;9.816;2024-01-15T15:22:29;6.30;88.60
82231;DHT22;71832;45.138;9.816;2024-01-15T15:24:57;6.30;88.70
82231;DHT22;71832;45.138;9.816;2024-01-15T15:27:25;6.20;88.10
82231;DHT22;71832;45.138;9.816;2024-01-15T15:29:54;6.20;88.10
82231;DHT22;71832;45.138;9.816;2024-01-15T15:32:23;6.20;88.20
82231;DHT22;71832;45.138;9.816;2024-01-15T15:34:50;6.10;89.20
82231;DHT22;71832;45.138;9.816;2024-01-15T15:37:18;6.00;89.30
82231;DHT22;71832;45.138;9.816;2024-01-15T15:39:46;6.00;89.20
82231;DHT22;71832;45.138;9.816;2024-01-15T15:42:14;6.00;89.30
82231;DHT22;71832;45.138;9.816;2024-01-15T15:44:42;6.00;88.60
82231;DHT22;71832;45.138;9.816;2024-01-15T15:47:13;6.00;88.20
82231;DHT22;71832;45.138;9.816;2024-01-15T15:49:42;6.00;88.20
82231;DHT22;71832;45.138;9.816;2024-01-15T15:52:11;6.00;88.50
82231;DHT22;71832;45.138;9.816;2024-01-15T15:54:39;6.00;88.40
82231;DHT22;71832;45.138;9.816;2024-01-15T15:57:34;5.90;88.70
82231;DHT22;71832;45.138;9.816;2024-01-15T16:12:25;5.70;89.60
82231;DHT22;71832;45.138;9.816;2024-01-15T16:15:27;5.60;89.70
82231;DHT22;71832;45.138;9.816;2024-01-15T16:20:44;5.50;90.10
82231;DHT22;71832;45.138;9.816;2024-01-15T16:23:12;5.50;90.50
82231;DHT22;71832;45.138;9.816;2024-01-15T16:25:40;5.50;90.30
82231;DHT22;71832;45.138;9.816;2024-01-15T16:28:09;5.50;90.50
82231;DHT22;71832;45.138;9.816;2024-01-15T16:30:57;5.50;91.00
82231;DHT22;71832;45.138;9.816;2024-01-15T16:33:27;5.50;90.90
82231;DHT22;71832;45.138;9.816;2024-01-15T16:35:56;5.50;90.80
82231;DHT22;71832;45.138;9.816;2024-01-15T16:39:00;5.50;90.70
82231;DHT22;71832;45.138;9.816;2024-01-15T16:44:28;5.30;91.10
82231;DHT22;71832;45.138;9.816;2024-01-15T16:47:00;5.30;91.20
82231;DHT22;71832;45.138;9.816;2024-01-15T16:52:38;5.30;91.50
82231;DHT22;71832;45.138;9.816;2024-01-15T16:55:05;5.10;90.10
82231;DHT22;71832;45.138;9.816;2024-01-15T17:03:22;5.00;91.80
82231;DHT22;71832;45.138;9.816;2024-01-15T17:05:51;5.00;91.80
82231;DHT22;71832;45.138;9.816;2024-01-15T17:08:19;5.00;92.00
82231;DHT22;71832;45.138;9.816;2024-01-15T17:10:47;5.00;92.10
82231;DHT22;71832;45.138;9.816;2024-01-15T17:13:15;5.00;92.20
82231;DHT22;71832;45.138;9.816;2024-01-15T17:15:45;5.00;92.30